createdAt,value
2023-04-15T00:02:19.838Z,74.26
2023-04-15T00:04:48.678Z,74.04
2023-04-15T00:07:18.040Z,74.60
2023-04-15T00:09:46.130Z,75.05
2023-04-15T00:12:13.725Z,74.31
2023-04-15T00:14:41.242Z,74.92
2023-04-15T00:17:08.681Z,74.24
2023-04-15T00:19:36.961Z,75.38
2023-04-15T00:22:04.415Z,75.23
2023-04-15T00:24:32.753Z,74.84
2023-04-15T00:27:00.267Z,74.74
2023-04-15T00:29:28.480Z,74.25
2023-04-15T00:31:57.063Z,73.85
2023-04-15T00:34:24.730Z,73.55
2023-04-15T00:36:52.648Z,72.77
2023-04-15T00:39:20.770Z,72.68
2023-04-15T00:41:49.245Z,72.56
2023-04-15T00:44:18.866Z,72.80
2023-04-15T00:46:48.697Z,73.32
2023-04-15T00:49:16.264Z,73.86
2023-04-15T00:51:43.828Z,74.58
2023-04-15T00:54:12.252Z,74.77
2023-04-15T00:56:40.082Z,75.52
2023-04-15T00:59:08.492Z,76.03
2023-04-15T01:01:38.369Z,75.92
2023-04-15T01:04:07.144Z,75.88
2023-04-15T01:06:34.929Z,75.89
2023-04-15T01:09:03.526Z,75.71
2023-04-15T01:11:36.011Z,75.57
2023-04-15T01:14:04.331Z,75.67
2023-04-15T01:16:32.114Z,75.09
2023-04-15T01:19:00.288Z,75.57
2023-04-15T01:21:28.152Z,75.83
2023-04-15T01:23:57.110Z,76.35
2023-04-15T01:26:25.232Z,76.34
2023-04-15T01:28:52.661Z,76.55
2023-04-15T01:31:22.136Z,75.63
2023-04-15T01:33:49.663Z,74.60
2023-04-15T01:36:17.157Z,73.46
2023-04-15T01:38:44.629Z,73.27
2023-04-15T01:41:14.384Z,72.54
2023-04-15T01:43:41.901Z,73.04
2023-04-15T01:46:10.263Z,71.99
2023-04-15T01:48:37.716Z,71.47
2023-04-15T01:51:05.730Z,70.53
2023-04-15T01:53:34.306Z,70.45
2023-04-15T01:56:03.487Z,70.20
2023-04-15T01:58:31.481Z,70.89
2023-04-15T02:00:58.944Z,71.31
2023-04-15T02:03:26.708Z,72.14
2023-04-15T02:05:54.208Z,71.94
2023-04-15T02:08:22.447Z,72.66
2023-04-15T02:10:49.889Z,73.12
2023-04-15T02:13:17.431Z,73.70
2023-04-15T02:15:52.596Z,74.25
2023-04-15T02:18:20.627Z,74.74
2023-04-15T02:20:48.771Z,74.80
2023-04-15T02:23:16.902Z,74.81
2023-04-15T02:25:53.115Z,74.96
2023-04-15T02:28:22.032Z,75.32
2023-04-15T02:30:53.738Z,75.41
2023-04-15T02:33:22.141Z,75.10
2023-04-15T02:35:49.674Z,74.88
2023-04-15T02:38:18.035Z,75.10
2023-04-15T02:40:45.606Z,75.32
2023-04-15T02:43:13.710Z,74.90
2023-04-15T02:45:43.572Z,75.64
2023-04-15T02:48:11.619Z,75.74
2023-04-15T02:50:40.703Z,75.38
2023-04-15T02:53:09.980Z,74.97
2023-04-15T02:55:37.570Z,74.53
2023-04-15T02:58:05.373Z,73.89
2023-04-15T03:00:33.077Z,74.19
2023-04-15T03:03:06.594Z,73.18
2023-04-15T03:05:34.482Z,74.13
2023-04-15T03:08:04.836Z,72.81
2023-04-15T03:10:32.758Z,73.56
2023-04-15T03:13:02.354Z,73.43
2023-04-15T03:15:29.839Z,73.69
2023-04-15T03:17:57.444Z,74.71
2023-04-15T03:20:25.028Z,74.98
2023-04-15T03:22:52.852Z,74.72
2023-04-15T03:25:22.516Z,75.08
2023-04-15T03:27:50.033Z,74.95
2023-04-15T03:30:18.666Z,74.72
2023-04-15T03:32:46.779Z,75.10
2023-04-15T03:35:14.302Z,75.30
2023-04-15T03:37:42.028Z,75.01
2023-04-15T03:40:10.102Z,74.98
2023-04-15T03:42:37.547Z,75.35
2023-04-15T03:45:05.895Z,75.50
2023-04-15T03:47:33.735Z,75.62
2023-04-15T03:50:01.203Z,75.32
2023-04-15T03:52:28.624Z,75.21
2023-04-15T03:54:56.069Z,75.09
2023-04-15T03:57:23.956Z,74.89
2023-04-15T03:59:51.419Z,74.80
2023-04-15T04:02:19.151Z,74.69
2023-04-15T04:04:47.098Z,74.21
2023-04-15T04:07:18.371Z,74.29
2023-04-15T04:09:47.340Z,74.26
2023-04-15T04:12:15.096Z,74.69
2023-04-15T04:14:42.682Z,74.01
2023-04-15T04:17:10.590Z,74.76
2023-04-15T04:19:38.201Z,73.29
2023-04-15T04:22:06.518Z,74.36
2023-04-15T04:24:34.157Z,75.15
2023-04-15T04:27:02.164Z,75.72
2023-04-15T04:29:29.656Z,76.38
2023-04-15T04:31:57.183Z,73.68
2023-04-15T04:34:24.677Z,74.15
2023-04-15T04:36:52.167Z,73.25
2023-04-15T04:39:19.619Z,72.66
2023-04-15T04:41:47.299Z,69.64
2023-04-15T04:44:14.809Z,70.51
2023-04-15T04:46:42.242Z,70.84
2023-04-15T04:49:09.928Z,71.97
2023-04-15T04:51:37.540Z,71.50
2023-04-15T04:54:05.043Z,68.67
2023-04-15T04:56:34.292Z,69.72
2023-04-15T04:59:02.170Z,67.08
2023-04-15T05:01:29.874Z,69.35
2023-04-15T05:03:57.630Z,66.96
2023-04-15T05:06:25.234Z,66.40
2023-04-15T05:08:52.871Z,65.50
2023-04-15T05:11:20.421Z,66.40
2023-04-15T05:13:47.897Z,67.48
2023-04-15T05:16:15.969Z,66.25
2023-04-15T05:18:43.476Z,64.82
2023-04-15T05:21:11.510Z,65.78
2023-04-15T05:23:39.460Z,64.34
2023-04-15T05:26:07.017Z,64.18
2023-04-15T05:28:35.090Z,62.33
2023-04-15T05:31:03.238Z,63.25
2023-04-15T05:33:30.851Z,62.73
2023-04-15T05:35:58.364Z,63.97
2023-04-15T05:38:26.187Z,66.27
2023-04-15T05:40:53.745Z,63.57
2023-04-15T05:43:21.593Z,63.65
2023-04-15T05:45:49.096Z,60.81
2023-04-15T05:48:16.644Z,55.48
2023-04-15T05:50:44.308Z,48.80
2023-04-15T05:53:11.850Z,45.01
2023-04-15T05:55:39.385Z,41.97
2023-04-15T05:58:06.967Z,38.17
2023-04-15T06:00:34.645Z,37.27
2023-04-15T06:03:02.449Z,35.09
2023-04-15T06:05:29.996Z,35.94
2023-04-15T06:07:57.708Z,34.33
2023-04-15T06:10:25.200Z,34.90
2023-04-15T06:12:53.626Z,34.12
2023-04-15T06:15:21.169Z,33.44
2023-04-15T06:17:48.678Z,32.68
2023-04-15T06:20:16.420Z,28.60
2023-04-15T06:22:43.990Z,31.49
2023-04-15T06:25:11.722Z,30.02
2023-04-15T06:27:39.370Z,29.56
2023-04-15T06:30:08.002Z,28.85
2023-04-15T06:32:35.751Z,28.49
2023-04-15T06:35:04.047Z,26.11
2023-04-15T06:37:32.938Z,27.16
2023-04-15T06:40:00.602Z,26.79
2023-04-15T06:42:28.155Z,27.94
2023-04-15T06:44:55.742Z,25.92
2023-04-15T06:47:23.239Z,27.32
2023-04-15T06:49:50.976Z,26.08
2023-04-15T06:52:18.444Z,26.37
2023-04-15T06:54:45.964Z,25.31
2023-04-15T06:57:13.451Z,27.46
2023-04-15T06:59:43.697Z,27.10
2023-04-15T07:02:14.108Z,26.22
2023-04-15T07:04:41.773Z,26.29
2023-04-15T07:07:09.487Z,26.57
2023-04-15T07:09:36.891Z,27.00
2023-04-15T07:12:04.412Z,27.20
2023-04-15T07:14:31.953Z,27.83
2023-04-15T07:16:59.447Z,25.97
2023-04-15T07:19:27.186Z,27.45
2023-04-15T07:21:54.650Z,26.02
2023-04-15T07:24:23.258Z,25.30
2023-04-15T07:26:51.211Z,25.81
2023-04-15T07:29:20.042Z,28.12
2023-04-15T07:31:47.488Z,27.21
2023-04-15T07:34:15.036Z,25.71
2023-04-15T07:36:43.219Z,25.89
2023-04-15T07:39:11.036Z,26.15
2023-04-15T07:41:39.034Z,27.24
2023-04-15T07:44:06.478Z,28.54
2023-04-15T07:46:34.203Z,27.28
2023-04-15T07:49:02.045Z,28.79
2023-04-15T07:51:30.746Z,28.42
2023-04-15T07:53:58.708Z,26.87
2023-04-15T07:56:26.580Z,26.23
2023-04-15T07:58:54.084Z,24.45
2023-04-15T08:01:21.774Z,25.44
2023-04-15T08:03:49.414Z,25.15
2023-04-15T08:06:17.260Z,27.12
2023-04-15T08:08:46.751Z,28.52
2023-04-15T08:11:14.722Z,27.55
2023-04-15T08:13:42.261Z,28.80
2023-04-15T08:16:24.743Z,31.33
2023-04-15T08:18:53.902Z,31.56
2023-04-15T08:21:21.435Z,31.85
2023-04-15T08:23:52.274Z,31.23
2023-04-15T08:26:21.625Z,31.71
2023-04-15T08:28:50.062Z,30.65
2023-04-15T08:31:19.101Z,31.47
2023-04-15T08:33:46.824Z,31.78
2023-04-15T08:36:14.964Z,31.11
2023-04-15T08:38:44.517Z,33.75
2023-04-15T08:41:31.783Z,33.85
2023-04-15T08:44:05.240Z,33.96
2023-04-15T08:46:37.052Z,33.94
2023-04-15T08:49:05.683Z,32.18
2023-04-15T08:51:34.070Z,34.78
2023-04-15T08:54:03.475Z,33.48
2023-04-15T08:56:33.619Z,33.29
2023-04-15T08:59:01.871Z,35.36
2023-04-15T09:01:29.804Z,33.89
2023-04-15T09:03:59.845Z,35.93
2023-04-15T09:06:27.384Z,36.53
2023-04-15T09:08:54.995Z,36.16
2023-04-15T09:11:22.795Z,33.95
2023-04-15T09:13:50.819Z,31.59
2023-04-15T09:16:18.880Z,32.80
2023-04-15T09:18:46.503Z,32.54
2023-04-15T09:21:17.663Z,33.88
2023-04-15T09:23:58.390Z,34.75
2023-04-15T09:26:34.086Z,34.48
2023-04-15T09:29:07.935Z,35.76
2023-04-15T09:31:37.141Z,35.29
2023-04-15T09:34:06.213Z,36.03
2023-04-15T09:36:56.849Z,36.46
2023-04-15T09:39:24.499Z,36.77
2023-04-15T09:42:08.481Z,36.01
2023-04-15T09:44:36.490Z,37.28
2023-04-15T09:47:04.024Z,34.96
2023-04-15T09:49:31.764Z,34.54
2023-04-15T09:52:06.075Z,35.88
2023-04-15T09:54:38.843Z,36.81
2023-04-15T09:57:09.948Z,38.75
2023-04-15T09:59:37.749Z,39.29
2023-04-15T10:02:09.451Z,36.66
2023-04-15T10:04:41.628Z,37.47
2023-04-15T10:07:10.085Z,36.63
2023-04-15T10:09:39.591Z,36.49
2023-04-15T10:12:07.603Z,35.23
2023-04-15T10:14:38.615Z,32.88
2023-04-15T10:17:08.298Z,32.64
2023-04-15T10:19:38.033Z,33.85
2023-04-15T10:22:06.885Z,35.32
2023-04-15T10:24:36.474Z,33.51
2023-04-15T10:27:05.809Z,32.80
2023-04-15T10:29:34.098Z,33.08
2023-04-15T10:32:03.072Z,34.76
2023-04-15T10:34:32.795Z,33.52
2023-04-15T10:37:05.822Z,33.65
2023-04-15T10:39:33.208Z,32.91
2023-04-15T10:42:15.411Z,35.37
2023-04-15T10:44:56.429Z,34.80
2023-04-15T10:47:24.114Z,35.61
2023-04-15T10:50:02.726Z,35.93
2023-04-15T10:52:30.232Z,33.54
2023-04-15T10:55:19.511Z,34.70
2023-04-15T10:57:47.094Z,35.33
2023-04-15T11:00:19.762Z,35.37
2023-04-15T11:02:57.389Z,34.68
2023-04-15T11:05:43.372Z,36.30
2023-04-15T11:08:12.826Z,35.77
2023-04-15T11:10:40.346Z,36.29
2023-04-15T11:13:11.010Z,37.48
2023-04-15T11:15:47.061Z,34.93
2023-04-15T11:18:24.033Z,35.59
2023-04-15T11:20:54.953Z,34.13
2023-04-15T11:23:46.791Z,31.17
2023-04-15T11:26:15.458Z,33.37
2023-04-15T11:28:45.835Z,30.18
2023-04-15T11:31:20.137Z,29.99
2023-04-15T11:33:59.519Z,29.87
2023-04-15T11:36:30.383Z,31.89
2023-04-15T11:38:59.824Z,31.46
2023-04-15T11:41:27.407Z,30.94
2023-04-15T11:43:54.894Z,32.50
2023-04-15T11:46:30.780Z,28.68
2023-04-15T11:48:58.337Z,31.46
2023-04-15T11:51:26.114Z,31.20
2023-04-15T11:53:54.845Z,28.98
2023-04-15T11:56:25.674Z,29.59
2023-04-15T11:58:59.371Z,31.01
2023-04-15T12:01:47.266Z,28.84
2023-04-15T12:04:20.887Z,30.40
2023-04-15T12:06:50.733Z,31.36
2023-04-15T12:09:20.252Z,31.83
2023-04-15T12:11:55.088Z,31.97
2023-04-15T12:14:32.059Z,31.66
2023-04-15T12:17:02.840Z,30.50
2023-04-15T12:19:37.958Z,31.42
2023-04-15T12:22:11.309Z,31.31
2023-04-15T12:24:40.016Z,33.99
2023-04-15T12:27:12.718Z,30.63
2023-04-15T12:29:43.212Z,31.50
2023-04-15T12:32:16.878Z,33.15
2023-04-15T12:34:52.449Z,31.18
2023-04-15T12:37:21.043Z,30.43
2023-04-15T12:39:50.177Z,31.32
2023-04-15T12:42:19.006Z,31.41
2023-04-15T12:44:47.358Z,31.80
2023-04-15T12:47:15.414Z,30.11
2023-04-15T12:49:42.849Z,29.26
2023-04-15T12:52:10.529Z,29.84
2023-04-15T12:54:38.159Z,28.70
2023-04-15T12:57:07.417Z,27.23
2023-04-15T12:59:36.126Z,28.48
2023-04-15T13:02:04.359Z,31.78
2023-04-15T13:04:32.163Z,29.30
2023-04-15T13:06:59.748Z,31.13
2023-04-15T13:09:27.179Z,31.66
2023-04-15T13:11:54.896Z,33.38
2023-04-15T13:14:22.393Z,32.49
2023-04-15T13:16:49.880Z,32.87
2023-04-15T13:19:17.335Z,30.35
2023-04-15T13:21:44.796Z,30.70
2023-04-15T13:24:12.271Z,30.62
2023-04-15T13:26:39.757Z,29.72
2023-04-15T13:29:07.353Z,28.33
2023-04-15T13:31:35.012Z,30.10
2023-04-15T13:34:02.729Z,31.02
2023-04-15T13:36:30.684Z,29.92
2023-04-15T13:38:58.479Z,30.41
2023-04-15T13:41:25.957Z,28.71
2023-04-15T13:43:53.346Z,29.84
2023-04-15T13:46:21.095Z,29.71
2023-04-15T13:48:48.606Z,33.46
2023-04-15T13:51:16.224Z,32.67
2023-04-15T13:53:45.993Z,31.24
2023-04-15T13:56:13.525Z,33.36
2023-04-15T13:58:41.811Z,34.30
2023-04-15T14:01:09.360Z,36.35
2023-04-15T14:03:37.383Z,33.05
2023-04-15T14:06:06.422Z,33.93
2023-04-15T14:08:34.169Z,34.53
2023-04-15T14:11:01.684Z,33.83
2023-04-15T14:13:29.447Z,33.03
2023-04-15T14:15:57.629Z,33.16
2023-04-15T14:18:25.605Z,37.61
2023-04-15T14:20:53.231Z,37.84
2023-04-15T14:23:20.848Z,34.83
2023-04-15T14:25:51.907Z,33.93
2023-04-15T14:28:19.493Z,36.88
2023-04-15T14:30:47.115Z,34.19
2023-04-15T14:33:14.635Z,35.13
2023-04-15T14:35:42.213Z,35.00
2023-04-15T14:38:11.291Z,35.64
2023-04-15T14:40:39.232Z,34.59
2023-04-15T14:43:06.849Z,36.46
2023-04-15T14:45:34.989Z,37.53
2023-04-15T14:48:02.512Z,37.18
2023-04-15T14:50:30.112Z,39.46
2023-04-15T14:52:59.235Z,38.59
2023-04-15T14:55:26.857Z,39.01
2023-04-15T14:57:54.430Z,40.52
2023-04-15T15:00:22.060Z,40.72
2023-04-15T15:02:49.748Z,41.16
2023-04-15T15:05:17.562Z,40.70
2023-04-15T15:07:45.759Z,41.25
2023-04-15T15:10:13.444Z,40.53
2023-04-15T15:12:40.981Z,41.39
2023-04-15T15:15:25.037Z,43.55
2023-04-15T15:17:55.131Z,43.01
2023-04-15T15:20:23.750Z,42.67
2023-04-15T15:22:51.665Z,42.78
2023-04-15T15:25:19.625Z,43.13
2023-04-15T15:27:47.547Z,42.81
2023-04-15T15:30:15.682Z,43.51
2023-04-15T15:32:43.706Z,44.38
2023-04-15T15:35:11.528Z,46.15
2023-04-15T15:37:39.091Z,47.48
2023-04-15T15:40:08.227Z,48.77
2023-04-15T15:42:36.042Z,50.05
2023-04-15T15:45:04.865Z,51.21
2023-04-15T15:47:33.863Z,52.11
2023-04-15T15:50:02.705Z,52.35
2023-04-15T15:52:31.841Z,52.70
2023-04-15T15:54:59.405Z,52.96
2023-04-15T15:57:26.862Z,53.45
2023-04-15T16:00:04.961Z,53.14
2023-04-15T16:05:11.383Z,54.08
2023-04-15T16:07:38.906Z,54.94
2023-04-15T16:10:07.433Z,55.47
2023-04-15T16:12:35.193Z,56.01
2023-04-15T16:15:03.856Z,55.95
2023-04-15T16:17:31.434Z,56.46
2023-04-15T16:20:01.149Z,56.75
2023-04-15T16:22:30.416Z,55.88
2023-04-15T16:24:59.690Z,55.90
2023-04-15T16:27:28.086Z,55.96
2023-04-15T16:29:55.768Z,56.02
2023-04-15T16:32:23.349Z,56.43
2023-04-15T16:34:53.160Z,56.92
2023-04-15T16:37:21.639Z,57.89
2023-04-15T16:39:49.169Z,57.64
2023-04-15T16:42:17.254Z,58.27
2023-04-15T16:44:44.727Z,58.12
2023-04-15T16:47:12.234Z,58.79
2023-04-15T16:49:39.687Z,59.19
2023-04-15T16:52:07.706Z,59.34
2023-04-15T16:54:37.688Z,59.50
2023-04-15T16:57:05.143Z,59.51
2023-04-15T16:59:32.640Z,59.62
2023-04-15T17:02:00.624Z,60.02
2023-04-15T17:04:28.787Z,60.03
2023-04-15T17:06:56.460Z,60.39
2023-04-15T17:09:23.971Z,60.72
2023-04-15T17:11:51.496Z,61.25
2023-04-15T17:14:19.039Z,61.48
2023-04-15T17:16:47.576Z,62.17
2023-04-15T17:19:15.027Z,63.22
2023-04-15T17:21:43.450Z,62.89
2023-04-15T17:24:11.429Z,63.26
2023-04-15T17:26:38.922Z,64.07
2023-04-15T17:29:06.859Z,64.43
2023-04-15T17:31:34.721Z,65.11
2023-04-15T17:34:09.653Z,65.60
2023-04-15T17:36:38.663Z,66.06
2023-04-15T17:39:06.662Z,66.54
2023-04-15T17:41:34.468Z,66.88
2023-04-15T17:44:01.994Z,67.25
2023-04-15T17:46:29.980Z,67.07
2023-04-15T17:48:57.494Z,67.24
2023-04-15T17:51:24.958Z,67.81
2023-04-15T17:54:07.530Z,68.13
2023-04-15T17:56:35.494Z,68.75
2023-04-15T17:59:03.565Z,68.97
2023-04-15T18:01:32.295Z,68.85
2023-04-15T18:03:59.948Z,69.09
2023-04-15T18:06:29.140Z,69.42
2023-04-15T18:08:56.622Z,70.34
2023-04-15T18:11:24.168Z,69.76
2023-04-15T18:13:51.749Z,69.34
2023-04-15T18:16:19.372Z,69.45
2023-04-15T18:18:46.975Z,69.60
2023-04-15T18:21:16.698Z,69.81
2023-04-15T18:23:45.350Z,69.73
2023-04-15T18:26:13.506Z,70.04
2023-04-15T18:28:41.211Z,70.28
2023-04-15T18:31:08.790Z,70.40
2023-04-15T18:33:36.344Z,70.73
2023-04-15T18:36:04.085Z,70.97
2023-04-15T18:38:31.890Z,71.18
2023-04-15T18:40:59.452Z,71.23
2023-04-15T18:43:27.020Z,71.26
2023-04-15T18:45:54.998Z,71.26
2023-04-15T18:48:22.850Z,71.35
2023-04-15T18:50:53.979Z,72.35
2023-04-15T18:53:23.065Z,73.42
2023-04-15T18:55:50.684Z,73.77
2023-04-15T18:58:18.138Z,73.68
2023-04-15T19:00:45.677Z,73.55
2023-04-15T19:03:14.753Z,73.62
2023-04-15T19:05:42.591Z,73.80
2023-04-15T19:08:12.366Z,74.13
2023-04-15T19:10:39.921Z,74.58
2023-04-15T19:13:07.433Z,74.62
2023-04-15T19:15:35.491Z,75.14
2023-04-15T19:18:05.339Z,75.52
2023-04-15T19:20:34.857Z,76.11
2023-04-15T19:23:04.773Z,75.80
2023-04-15T19:25:32.659Z,75.85
2023-04-15T19:28:00.264Z,75.94
2023-04-15T19:30:28.711Z,76.25
2023-04-15T19:32:56.224Z,76.20
2023-04-15T19:35:23.664Z,76.51
2023-04-15T19:37:51.214Z,76.46
2023-04-15T19:40:18.718Z,76.71
2023-04-15T19:42:46.116Z,76.55
2023-04-15T19:45:13.811Z,76.72
2023-04-15T19:47:41.469Z,77.31
2023-04-15T19:50:11.896Z,77.56
2023-04-15T19:52:39.357Z,77.48
2023-04-15T19:55:07.212Z,77.55
2023-04-15T19:57:34.763Z,77.53
2023-04-15T20:00:05.963Z,77.49
2023-04-15T20:02:33.624Z,77.83
2023-04-15T20:05:01.425Z,77.92
2023-04-15T20:07:28.995Z,77.62
2023-04-15T20:09:56.644Z,77.31
2023-04-15T20:12:50.206Z,77.35
2023-04-15T20:15:12.754Z,77.28
2023-04-15T20:17:40.468Z,77.09
2023-04-15T20:20:09.121Z,77.06
2023-04-15T20:22:36.616Z,77.22
2023-04-15T20:25:04.978Z,77.49
2023-04-15T20:27:32.432Z,77.60
2023-04-15T20:29:59.885Z,78.10
2023-04-15T20:32:28.933Z,78.28
2023-04-15T20:34:56.556Z,78.67
2023-04-15T20:37:24.028Z,78.21
2023-04-15T20:39:51.589Z,78.21
2023-04-15T20:42:19.827Z,77.55
2023-04-15T20:44:47.358Z,77.18
2023-04-15T20:47:14.808Z,77.52
2023-04-15T20:49:42.296Z,77.64
2023-04-15T20:52:10.164Z,77.50
2023-04-15T20:54:37.617Z,77.22
2023-04-15T20:57:05.034Z,77.51
2023-04-15T20:59:34.827Z,78.06
2023-04-15T21:02:02.685Z,77.99
2023-04-15T21:04:30.714Z,78.01
2023-04-15T21:06:58.264Z,77.95
2023-04-15T21:09:25.923Z,78.04
2023-04-15T21:12:01.063Z,78.10
2023-04-15T21:14:29.556Z,78.08
2023-04-15T21:16:58.949Z,77.96
2023-04-15T21:19:26.640Z,77.74
2023-04-15T21:21:54.216Z,78.23
2023-04-15T21:24:21.719Z,78.07
2023-04-15T21:26:50.377Z,77.79
2023-04-15T21:29:18.118Z,77.72
2023-04-15T21:31:45.902Z,78.01
2023-04-15T21:34:13.547Z,78.48
2023-04-15T21:36:41.068Z,78.96
2023-04-15T21:39:08.663Z,78.97
2023-04-15T21:41:39.176Z,79.21
2023-04-15T21:44:06.755Z,79.11
2023-04-15T21:46:35.581Z,79.18
2023-04-15T21:49:07.112Z,79.45
2023-04-15T21:51:35.176Z,80.54
2023-04-15T21:54:02.907Z,79.16
2023-04-15T21:56:30.372Z,79.40
2023-04-15T21:58:58.190Z,79.16
2023-04-15T22:01:26.511Z,79.33
2023-04-15T22:03:54.282Z,79.28
2023-04-15T22:06:22.050Z,78.80
2023-04-15T22:08:56.764Z,77.12
2023-04-15T22:11:30.469Z,76.24
2023-04-15T22:13:59.271Z,76.63
2023-04-15T22:16:27.360Z,76.47
2023-04-15T22:18:55.796Z,76.32
2023-04-15T22:21:23.860Z,76.16
2023-04-15T22:23:52.255Z,75.63
2023-04-15T22:26:19.718Z,76.13
2023-04-15T22:28:47.250Z,76.85
2023-04-15T22:31:15.453Z,78.19
2023-04-15T22:33:43.001Z,78.66
2023-04-15T22:36:10.718Z,78.74
2023-04-15T22:38:38.199Z,78.60
2023-04-15T22:41:05.707Z,78.56
2023-04-15T22:43:33.126Z,78.58
2023-04-15T22:46:01.424Z,78.43
2023-04-15T22:48:29.005Z,78.40
2023-04-15T22:50:56.518Z,78.54
2023-04-15T22:53:24.576Z,78.38
2023-04-15T22:55:52.307Z,78.19
2023-04-15T22:58:19.814Z,77.60
2023-04-15T23:00:47.425Z,77.24
2023-04-15T23:03:15.089Z,76.84
2023-04-15T23:05:44.980Z,75.69
2023-04-15T23:08:12.392Z,74.56
2023-04-15T23:10:40.245Z,74.10
2023-04-15T23:13:07.805Z,74.66
2023-04-15T23:15:36.028Z,76.07
2023-04-15T23:18:03.649Z,76.07
2023-04-15T23:20:31.114Z,76.36
2023-04-15T23:22:58.725Z,75.44
2023-04-15T23:25:26.207Z,74.74
2023-04-15T23:27:53.859Z,75.00
2023-04-15T23:30:21.733Z,75.60
2023-04-15T23:32:50.286Z,75.96
2023-04-15T23:35:17.908Z,75.74
2023-04-15T23:37:45.521Z,75.17
2023-04-15T23:40:14.103Z,75.37
2023-04-15T23:42:42.108Z,76.29
2023-04-15T23:45:10.502Z,78.21
2023-04-15T23:47:39.133Z,79.80
2023-04-15T23:50:09.045Z,80.36
2023-04-15T23:52:36.963Z,79.27
2023-04-15T23:55:04.945Z,76.35
2023-04-15T23:57:32.376Z,74.70
